»·PEaware :: PHKIM KBOK-KCVO

PHKIM :: KBOK-KCVO

FLIGHT INFORMATION

Flight Status: Arrived
Operator: Unknown
More flights by this operator :: More flights under this callsign
Pilot: Kim B. (19519)
Aircraft: EMBRAER BANDEIRANTE
(E110)
More flights by this aircraft type
Origin: KBOK Brookings State
United States
Destination: KCVO Corvallis Mun
United States
More flights between these airports :: More routes between these airports
Route: OTH V121 EUG
File this flight plan on PilotEdge
Remarks:
Altitude:
(Current/Filed)
7,000ft
Speed:
(Current/Filed)
180kts
Departed: 19-Oct-18 04:41 PM
Arrived: 19-Oct-18 05:41 PM
Distance/Time
Traveled:
152nm/1:00
Distance/Time
To Go:
Arrived

Flight Plot

Page will automatically refresh every two minutes.

Flight plan parsing failed; only flown route is shown


Map Options




Map Legend


Flown Route
Filed Route
Departure Airport
Arrival Airport
Navaid (VOR, NDB)
Fix

Horizontal Profiles

Position Reports

Time Latitude Longitude Heading Altitude Ground
Speed
19-Oct-18 16:42 42.737405 -124.196149 5 7131ft 190kts
19-Oct-18 16:43 42.779608 -124.193003 4 7149ft 189kts
19-Oct-18 16:44 42.817518 -124.193268 7 7127ft 189kts
19-Oct-18 16:45 42.851812 -124.192779 353 6963ft 190kts
19-Oct-18 16:46 42.884031 -124.197864 358 6975ft 166kts
19-Oct-18 16:47 42.913635 -124.199528 2 6987ft 156kts
19-Oct-18 16:48 42.944244 -124.199550 4 6989ft 154kts
19-Oct-18 16:49 42.972921 -124.198666 4 7006ft 168kts
19-Oct-18 16:50 43.004604 -124.197141 5 6994ft 187kts
19-Oct-18 16:51 43.042751 -124.194772 359 6985ft 196kts
19-Oct-18 16:52 43.083347 -124.192178 359 6992ft 202kts
19-Oct-18 16:53 43.124686 -124.189394 359 6990ft 203kts
19-Oct-18 16:54 43.167494 -124.186534 0 6990ft 204kts
19-Oct-18 16:55 43.208396 -124.183534 359 6990ft 204kts
19-Oct-18 16:56 43.250054 -124.180509 0 6990ft 204kts
19-Oct-18 16:57 43.292256 -124.177460 359 6990ft 204kts
19-Oct-18 16:58 43.334231 -124.174366 0 6990ft 204kts
19-Oct-18 16:59 43.372960 -124.171577 359 6990ft 204kts
19-Oct-18 17:00 43.415779 -124.168424 0 6990ft 204kts
19-Oct-18 17:01 43.446211 -124.145442 44 6999ft 209kts
19-Oct-18 17:02 43.474666 -124.111797 41 6990ft 210kts
19-Oct-18 17:03 43.503118 -124.073611 46 7004ft 205kts
19-Oct-18 17:04 43.533641 -124.032276 46 6987ft 194kts
19-Oct-18 17:05 43.559189 -123.997587 46 6990ft 192kts
19-Oct-18 17:06 43.583689 -123.964280 46 6990ft 191kts
19-Oct-18 17:07 43.611328 -123.926658 46 6990ft 191kts
19-Oct-18 17:08 43.639778 -123.887882 46 6990ft 191kts
19-Oct-18 17:09 43.670438 -123.846034 46 6990ft 191kts
19-Oct-18 17:10 43.699333 -123.806533 46 6986ft 191kts
19-Oct-18 17:11 43.721434 -123.776283 46 7021ft 190kts
19-Oct-18 17:12 43.745063 -123.743904 46 7006ft 192kts
19-Oct-18 17:13 43.778070 -123.698614 46 6996ft 192kts
19-Oct-18 17:14 43.813898 -123.649369 46 6988ft 193kts
19-Oct-18 17:15 43.851418 -123.597677 45 6466ft 215kts
19-Oct-18 17:16 43.894512 -123.538252 45 5187ft 203kts
19-Oct-18 17:17 43.932702 -123.485471 44 5009ft 197kts
19-Oct-18 17:18 43.969303 -123.434766 45 5054ft 187kts
19-Oct-18 17:19 44.005240 -123.384887 45 5056ft 186kts
19-Oct-18 17:20 44.040871 -123.335054 46 5058ft 186kts
19-Oct-18 17:21 44.076678 -123.284414 45 5057ft 186kts
19-Oct-18 17:22 44.111576 -123.235509 45 5059ft 186kts
19-Oct-18 17:23 44.156526 -123.204739 14 5054ft 189kts
19-Oct-18 17:24 44.208726 -123.186881 16 4650ft 199kts
19-Oct-18 17:25 44.262124 -123.166485 14 4234ft 200kts
19-Oct-18 17:26 44.312309 -123.149657 15 3860ft 199kts
19-Oct-18 17:27 44.365391 -123.130509 15 3471ft 199kts
19-Oct-18 17:28 44.418932 -123.110630 16 3086ft 200kts
19-Oct-18 17:29 44.471201 -123.091004 16 3033ft 192kts
19-Oct-18 17:30 44.521036 -123.072183 16 3030ft 191kts
19-Oct-18 17:31 44.570210 -123.053555 16 3025ft 178kts
19-Oct-18 17:32 44.616518 -123.035959 16 3029ft 172kts
19-Oct-18 17:33 44.662169 -123.018589 15 3030ft 171kts
19-Oct-18 17:34 44.701033 -123.042109 309 3034ft 174kts
19-Oct-18 17:35 44.728073 -123.098496 299 3030ft 176kts
19-Oct-18 17:36 44.748168 -123.159165 290 3029ft 177kts
19-Oct-18 17:37 44.728758 -123.208180 190 2855ft 188kts
19-Oct-18 17:38 44.680698 -123.223741 193 2516ft 191kts
19-Oct-18 17:39 44.633390 -123.241298 194 2458ft 173kts
19-Oct-18 17:40 44.589713 -123.258284 194 2106ft 175kts
19-Oct-18 17:41 44.547922 -123.274745 194 980ft 135kts
19-Oct-18 17:42 44.521273 -123.285842 195 397ft 92kts
19-Oct-18 17:43 44.496972 -123.292043 186 247ft 36kts
19-Oct-18 17:44 44.494176 -123.291549 100 247ft 0kts
19-Oct-18 17:45 44.494176 -123.291549 100 247ft 0kts
19-Oct-18 17:46 44.496678 -123.290681 7 247ft 18kts
19-Oct-18 17:47 44.498861 -123.287060 77 246ft 18kts
19-Oct-18 17:48 44.500054 -123.284886 20 244ft 12kts
19-Oct-18 17:49 44.502913 -123.283066 33 244ft 6kts
19-Oct-18 17:50 44.503901 -123.282456 274 244ft 5kts
19-Oct-18 17:51 44.503836 -123.282630 209 244ft 0kts
19-Oct-18 17:52 44.503836 -123.282630 209 244ft 0kts
19-Oct-18 17:53 44.503836 -123.282630 209 244ft 0kts
19-Oct-18 17:54 44.503836 -123.282630 209 244ft 0kts
19-Oct-18 17:55 44.503836 -123.282630 209 244ft 0kts
19-Oct-18 17:56 44.503836 -123.282630 209 244ft 0kts
19-Oct-18 17:57 44.503836 -123.282630 209 244ft 0kts

Navigation Log

Ident Type
Flight plan parsing failed, navigation log unavailable